Rosava — UUBX2 — position and weather

sailwx.info

Track history (hours):
 
Tides and Currents Weather Stations Pressure Air Temp Water Temp Dewpoint Dewpoint Depression Visibility Wind Speed Wind Dir Waves Ship Positions

Rosava

Last reported at 2018-Apr-11 20:52 UTC. Time now 2018-Apr-20 07:05 UTC.
Position N 47°34' E 035°00'.
Warning: this ship's position is 8 days out of date.

Length 135 m; draft 1.4 m.

Type: Ship. MMSI: 272149400.

Date/timePositionNaut miles runAvg speedWind from/ knotsBaromVisibWave heightAir tempDewpointWater temp
2018-Apr-11 20:52N 47°34' E 035°00'1 3.0
2018-Apr-11 20:23N 47°35' E 035°02'4 3.1
2018-Apr-11 19:02N 47°38' E 035°06'0 3.5
2018-Apr-11 18:57N 47°39' E 035°06'2 3.7
2018-Apr-11 18:29N 47°40' E 035°07'2 4.0
2018-Apr-11 18:00N 47°42' E 035°08'2 3.7
2018-Apr-11 17:30N 47°43' E 035°09'2 3.3
2018-Apr-11 17:00N 47°45' E 035°10'2 3.3
2018-Apr-11 16:30N 47°47' E 035°09'2 3.1
2018-Apr-11 16:00N 47°48' E 035°10'2 3.3
2018-Apr-11 15:30N 47°49' E 035°08'2 3.3
2018-Apr-11 15:00N 47°50' E 035°06'1 2.9
2018-Apr-11 14:30N 47°52' E 035°05'0 0.6
2018-Apr-11 14:00N 47°52' E 035°06'0 0.6
2018-Apr-11 13:30N 47°52' E 035°06'2 3.3
2018-Apr-11 13:00N 47°54' E 035°06'0 1.0
2018-Apr-11 12:30N 47°54' E 035°06'0 0.0
2018-Apr-11 12:00N 47°54' E 035°06'0 0.6
2018-Apr-11 11:30N 47°54' E 035°07'1 2.7
2018-Apr-11 11:00N 47°56' E 035°07'2 3.1
2018-Apr-11 10:30N 47°57' E 035°07'2 3.0
2018-Apr-11 10:00N 47°59' E 035°07'1 2.8
2018-Apr-11 09:30N 48°00' E 035°08'1 2.6
2018-Apr-11 09:00N 48°02' E 035°08'1 2.7
2018-Apr-11 08:30N 48°03' E 035°07'1 2.2
2018-Apr-11 08:00N 48°04' E 035°06'  
Track history (hours):
 
Tides and Currents Weather Stations Pressure Air Temp Water Temp Dewpoint Dewpoint Depression Visibility Wind Speed Wind Dir Waves Ship Positions

Rosava

Last reported at 2018-Apr-11 20:52 UTC. Time now 2018-Apr-20 07:05 UTC.
Position N 47°34' E 035°00'.
Warning: this ship's position is 8 days out of date.

Length 135 m; draft 1.4 m.

Type: Ship. MMSI: 272149400.

Date/timePositionNaut miles runAvg speedWind from/ knotsBaromVisibWave heightAir tempDewpointWater temp
2018-Apr-11 20:52N 47°34' E 035°00'1 3.0
2018-Apr-11 20:23N 47°35' E 035°02'4 3.1
2018-Apr-11 19:02N 47°38' E 035°06'0 3.5
2018-Apr-11 18:57N 47°39' E 035°06'2 3.7
2018-Apr-11 18:29N 47°40' E 035°07'2 4.0
2018-Apr-11 18:00N 47°42' E 035°08'2 3.7
2018-Apr-11 17:30N 47°43' E 035°09'2 3.3
2018-Apr-11 17:00N 47°45' E 035°10'2 3.3
2018-Apr-11 16:30N 47°47' E 035°09'2 3.1
2018-Apr-11 16:00N 47°48' E 035°10'2 3.3
2018-Apr-11 15:30N 47°49' E 035°08'2 3.3
2018-Apr-11 15:00N 47°50' E 035°06'1 2.9
2018-Apr-11 14:30N 47°52' E 035°05'0 0.6
2018-Apr-11 14:00N 47°52' E 035°06'0 0.6
2018-Apr-11 13:30N 47°52' E 035°06'2 3.3
2018-Apr-11 13:00N 47°54' E 035°06'0 1.0
2018-Apr-11 12:30N 47°54' E 035°06'0 0.0
2018-Apr-11 12:00N 47°54' E 035°06'0 0.6
2018-Apr-11 11:30N 47°54' E 035°07'1 2.7
2018-Apr-11 11:00N 47°56' E 035°07'2 3.1
2018-Apr-11 10:30N 47°57' E 035°07'2 3.0
2018-Apr-11 10:00N 47°59' E 035°07'1 2.8
2018-Apr-11 09:30N 48°00' E 035°08'1 2.6
2018-Apr-11 09:00N 48°02' E 035°08'1 2.7
2018-Apr-11 08:30N 48°03' E 035°07'1 2.2
2018-Apr-11 08:00N 48°04' E 035°06'  

Dump ship's entire track history